sensor_id;sensor_type;location;lat;lon;timestamp;temperature;humidity
6210;DHT22;3138;52.550;13.148;2023-03-01T00:02:16;-5.50;1.00
6210;DHT22;3138;52.550;13.148;2023-03-01T00:04:44;-5.60;1.00
6210;DHT22;3138;52.550;13.148;2023-03-01T00:07:13;-5.50;1.00
6210;DHT22;3138;52.550;13.148;2023-03-01T00:09:42;-5.50;1.00
6210;DHT22;3138;52.550;13.148;2023-03-01T00:12:11;-5.50;1.00
6210;DHT22;3138;52.550;13.148;2023-03-01T00:14:39;-5.40;1.00
6210;DHT22;3138;52.550;13.148;2023-03-01T00:17:06;-5.50;1.00
6210;DHT22;3138;52.550;13.148;2023-03-01T00:19:34;-5.60;1.00
6210;DHT22;3138;52.550;13.148;2023-03-01T00:22:05;-5.70;1.00
6210;DHT22;3138;52.550;13.148;2023-03-01T00:24:34;-5.70;1.00
6210;DHT22;3138;52.550;13.148;2023-03-01T00:27:01;-5.80;1.00
6210;DHT22;3138;52.550;13.148;2023-03-01T00:29:28;-5.70;1.00
6210;DHT22;3138;52.550;13.148;2023-03-01T00:31:57;-5.60;1.00
6210;DHT22;3138;52.550;13.148;2023-03-01T00:34:26;-5.70;1.00
6210;DHT22;3138;52.550;13.148;2023-03-01T00:36:54;-5.70;1.00
6210;DHT22;3138;52.550;13.148;2023-03-01T00:39:21;-5.80;1.00
6210;DHT22;3138;52.550;13.148;2023-03-01T00:41:50;-5.80;1.00
6210;DHT22;3138;52.550;13.148;2023-03-01T00:44:19;-5.80;1.00
6210;DHT22;3138;52.550;13.148;2023-03-01T00:49:58;-5.80;1.00
6210;DHT22;3138;52.550;13.148;2023-03-01T00:52:27;-5.70;1.00
6210;DHT22;3138;52.550;13.148;2023-03-01T00:54:58;-5.60;5.10
6210;DHT22;3138;52.550;13.148;2023-03-01T00:57:28;-5.60;71.60
6210;DHT22;3138;52.550;13.148;2023-03-01T00:59:55;-5.80;65.80
6210;DHT22;3138;52.550;13.148;2023-03-01T01:02:23;-5.80;99.90
6210;DHT22;3138;52.550;13.148;2023-03-01T01:04:52;-5.70;99.90
6210;DHT22;3138;52.550;13.148;2023-03-01T01:07:19;-5.60;99.90
6210;DHT22;3138;52.550;13.148;2023-03-01T01:09:46;-5.70;99.90
6210;DHT22;3138;52.550;13.148;2023-03-01T01:12:13;-5.70;99.90
6210;DHT22;3138;52.550;13.148;2023-03-01T01:14:43;-5.90;99.90
6210;DHT22;3138;52.550;13.148;2023-03-01T01:17:10;-5.90;99.90
6210;DHT22;3138;52.550;13.148;2023-03-01T01:19:37;-5.90;99.90
6210;DHT22;3138;52.550;13.148;2023-03-01T01:22:03;-6.00;99.90
6210;DHT22;3138;52.550;13.148;2023-03-01T01:24:30;-6.10;99.90
6210;DHT22;3138;52.550;13.148;2023-03-01T01:26:57;-6.10;99.90
6210;DHT22;3138;52.550;13.148;2023-03-01T01:29:24;-6.10;99.90
6210;DHT22;3138;52.550;13.148;2023-03-01T01:31:53;-6.00;99.90
6210;DHT22;3138;52.550;13.148;2023-03-01T01:34:21;-6.10;62.90
6210;DHT22;3138;52.550;13.148;2023-03-01T01:36:48;-6.20;1.00
6210;DHT22;3138;52.550;13.148;2023-03-01T01:39:16;-6.30;1.00
6210;DHT22;3138;52.550;13.148;2023-03-01T01:41:43;-6.20;1.00
6210;DHT22;3138;52.550;13.148;2023-03-01T01:44:14;-6.30;1.00
6210;DHT22;3138;52.550;13.148;2023-03-01T01:46:44;-6.30;1.00
6210;DHT22;3138;52.550;13.148;2023-03-01T01:49:19;-6.20;1.00
6210;DHT22;3138;52.550;13.148;2023-03-01T01:51:51;-6.30;1.00
6210;DHT22;3138;52.550;13.148;2023-03-01T01:54:21;-6.30;1.00
6210;DHT22;3138;52.550;13.148;2023-03-01T01:56:53;-6.30;1.00
6210;DHT22;3138;52.550;13.148;2023-03-01T01:59:23;-6.30;1.00
6210;DHT22;3138;52.550;13.148;2023-03-01T02:01:51;-6.40;1.00
6210;DHT22;3138;52.550;13.148;2023-03-01T02:04:20;-6.50;1.00
6210;DHT22;3138;52.550;13.148;2023-03-01T02:06:51;-6.40;1.00
6210;DHT22;3138;52.550;13.148;2023-03-01T02:09:23;-6.40;1.00
6210;DHT22;3138;52.550;13.148;2023-03-01T02:11:51;-6.50;24.60
6210;DHT22;3138;52.550;13.148;2023-03-01T02:14:18;-6.30;99.90
6210;DHT22;3138;52.550;13.148;2023-03-01T02:16:45;-6.50;99.90
6210;DHT22;3138;52.550;13.148;2023-03-01T02:19:17;-6.50;99.90
6210;DHT22;3138;52.550;13.148;2023-03-01T02:21:52;-6.40;99.90
6210;DHT22;3138;52.550;13.148;2023-03-01T02:24:28;-6.40;99.90
6210;DHT22;3138;52.550;13.148;2023-03-01T02:27:00;-6.30;99.90
6210;DHT22;3138;52.550;13.148;2023-03-01T02:29:29;-6.40;99.90
6210;DHT22;3138;52.550;13.148;2023-03-01T02:31:59;-6.50;99.90
6210;DHT22;3138;52.550;13.148;2023-03-01T02:34:27;-6.50;99.90
6210;DHT22;3138;52.550;13.148;2023-03-01T02:36:58;-6.50;1.00
6210;DHT22;3138;52.550;13.148;2023-03-01T02:39:28;-6.60;1.00
6210;DHT22;3138;52.550;13.148;2023-03-01T02:41:59;-6.50;1.00
6210;DHT22;3138;52.550;13.148;2023-03-01T02:44:26;-6.30;1.00
6210;DHT22;3138;52.550;13.148;2023-03-01T02:47:11;-6.30;1.00
6210;DHT22;3138;52.550;13.148;2023-03-01T02:49:41;-6.40;1.00
6210;DHT22;3138;52.550;13.148;2023-03-01T02:52:23;-6.40;1.00
6210;DHT22;3138;52.550;13.148;2023-03-01T02:54:58;-6.40;1.00
6210;DHT22;3138;52.550;13.148;2023-03-01T02:57:26;-6.50;1.00
6210;DHT22;3138;52.550;13.148;2023-03-01T02:59:54;-6.50;1.00
6210;DHT22;3138;52.550;13.148;2023-03-01T03:02:25;-6.50;1.00
6210;DHT22;3138;52.550;13.148;2023-03-01T03:05:10;-6.50;1.00
6210;DHT22;3138;52.550;13.148;2023-03-01T03:07:39;-6.60;1.00
6210;DHT22;3138;52.550;13.148;2023-03-01T03:10:11;-6.60;1.00
6210;DHT22;3138;52.550;13.148;2023-03-01T03:12:38;-6.60;99.90
6210;DHT22;3138;52.550;13.148;2023-03-01T03:15:07;-6.50;1.00
6210;DHT22;3138;52.550;13.148;2023-03-01T03:17:38;-6.50;1.00
6210;DHT22;3138;52.550;13.148;2023-03-01T03:20:07;-6.40;1.00
6210;DHT22;3138;52.550;13.148;2023-03-01T03:22:37;-6.40;1.00
6210;DHT22;3138;52.550;13.148;2023-03-01T03:25:05;-6.60;1.00
6210;DHT22;3138;52.550;13.148;2023-03-01T03:27:38;-6.60;1.00
6210;DHT22;3138;52.550;13.148;2023-03-01T03:30:08;-6.50;1.00
6210;DHT22;3138;52.550;13.148;2023-03-01T03:32:38;-6.50;76.50
6210;DHT22;3138;52.550;13.148;2023-03-01T03:35:07;-6.60;99.90
6210;DHT22;3138;52.550;13.148;2023-03-01T03:37:36;-6.70;25.30
6210;DHT22;3138;52.550;13.148;2023-03-01T03:40:20;-6.80;1.00
6210;DHT22;3138;52.550;13.148;2023-03-01T03:42:47;-6.80;1.00
6210;DHT22;3138;52.550;13.148;2023-03-01T03:45:15;-6.80;1.00
6210;DHT22;3138;52.550;13.148;2023-03-01T03:47:43;-6.80;1.00
6210;DHT22;3138;52.550;13.148;2023-03-01T03:50:12;-6.90;1.00
6210;DHT22;3138;52.550;13.148;2023-03-01T03:52:40;-6.90;1.00
6210;DHT22;3138;52.550;13.148;2023-03-01T03:55:08;-6.80;1.00
6210;DHT22;3138;52.550;13.148;2023-03-01T03:57:36;-6.90;1.00
6210;DHT22;3138;52.550;13.148;2023-03-01T04:00:04;-6.90;1.00
6210;DHT22;3138;52.550;13.148;2023-03-01T04:02:38;-6.90;1.00
6210;DHT22;3138;52.550;13.148;2023-03-01T04:05:08;-6.90;1.00
6210;DHT22;3138;52.550;13.148;2023-03-01T04:07:36;-7.00;1.00
6210;DHT22;3138;52.550;13.148;2023-03-01T04:10:05;-6.80;1.00
6210;DHT22;3138;52.550;13.148;2023-03-01T04:12:35;-6.90;1.00
6210;DHT22;3138;52.550;13.148;2023-03-01T04:15:02;-6.80;1.00
6210;DHT22;3138;52.550;13.148;2023-03-01T04:17:38;-6.90;1.00
6210;DHT22;3138;52.550;13.148;2023-03-01T04:20:08;-6.90;1.00
6210;DHT22;3138;52.550;13.148;2023-03-01T04:22:36;-7.00;1.00
6210;DHT22;3138;52.550;13.148;2023-03-01T04:25:04;-7.10;1.00
6210;DHT22;3138;52.550;13.148;2023-03-01T04:27:32;-7.10;1.00
6210;DHT22;3138;52.550;13.148;2023-03-01T04:29:59;-7.00;1.00
6210;DHT22;3138;52.550;13.148;2023-03-01T04:32:26;-7.00;1.00
6210;DHT22;3138;52.550;13.148;2023-03-01T04:34:57;-7.00;1.00
6210;DHT22;3138;52.550;13.148;2023-03-01T04:37:25;-7.00;1.00
6210;DHT22;3138;52.550;13.148;2023-03-01T04:39:52;-7.00;1.00
6210;DHT22;3138;52.550;13.148;2023-03-01T04:42:19;-7.00;99.90
6210;DHT22;3138;52.550;13.148;2023-03-01T04:44:46;-6.90;99.90
6210;DHT22;3138;52.550;13.148;2023-03-01T04:47:13;-6.90;99.90
6210;DHT22;3138;52.550;13.148;2023-03-01T04:49:40;-7.00;1.00
6210;DHT22;3138;52.550;13.148;2023-03-01T04:52:07;-7.00;99.90
6210;DHT22;3138;52.550;13.148;2023-03-01T04:54:36;-7.00;99.90
6210;DHT22;3138;52.550;13.148;2023-03-01T04:57:03;-7.10;99.90
6210;DHT22;3138;52.550;13.148;2023-03-01T04:59:30;-7.10;99.90
6210;DHT22;3138;52.550;13.148;2023-03-01T05:01:57;-7.10;99.90
6210;DHT22;3138;52.550;13.148;2023-03-01T05:04:25;-7.00;99.90
6210;DHT22;3138;52.550;13.148;2023-03-01T05:06:52;-7.10;99.90
6210;DHT22;3138;52.550;13.148;2023-03-01T05:09:20;-7.20;99.90
6210;DHT22;3138;52.550;13.148;2023-03-01T05:11:48;-7.10;99.90
6210;DHT22;3138;52.550;13.148;2023-03-01T05:14:17;-7.20;99.90
6210;DHT22;3138;52.550;13.148;2023-03-01T05:16:44;-7.10;99.90
6210;DHT22;3138;52.550;13.148;2023-03-01T05:19:10;-7.00;99.90
6210;DHT22;3138;52.550;13.148;2023-03-01T05:21:42;-7.10;99.90
6210;DHT22;3138;52.550;13.148;2023-03-01T05:24:23;-7.20;99.90
6210;DHT22;3138;52.550;13.148;2023-03-01T05:26:51;-7.30;99.90
6210;DHT22;3138;52.550;13.148;2023-03-01T05:29:18;-7.30;99.90
6210;DHT22;3138;52.550;13.148;2023-03-01T05:31:51;-7.20;99.90
6210;DHT22;3138;52.550;13.148;2023-03-01T05:34:18;-7.20;99.90
6210;DHT22;3138;52.550;13.148;2023-03-01T05:36:48;-7.20;99.90
6210;DHT22;3138;52.550;13.148;2023-03-01T05:39:19;-7.30;99.90
6210;DHT22;3138;52.550;13.148;2023-03-01T05:41:46;-7.20;99.90
6210;DHT22;3138;52.550;13.148;2023-03-01T05:44:15;-7.30;99.90
6210;DHT22;3138;52.550;13.148;2023-03-01T05:46:42;-7.40;99.90
6210;DHT22;3138;52.550;13.148;2023-03-01T05:49:08;-7.50;99.90
6210;DHT22;3138;52.550;13.148;2023-03-01T05:51:35;-7.50;99.90
6210;DHT22;3138;52.550;13.148;2023-03-01T05:54:03;-7.40;99.90
6210;DHT22;3138;52.550;13.148;2023-03-01T05:56:32;-7.40;99.90
6210;DHT22;3138;52.550;13.148;2023-03-01T05:59:00;-7.30;99.90
6210;DHT22;3138;52.550;13.148;2023-03-01T06:01:28;-7.30;99.90
6210;DHT22;3138;52.550;13.148;2023-03-01T06:03:56;-7.30;99.90
6210;DHT22;3138;52.550;13.148;2023-03-01T06:06:23;-7.40;99.90
6210;DHT22;3138;52.550;13.148;2023-03-01T06:08:50;-7.40;99.90
6210;DHT22;3138;52.550;13.148;2023-03-01T06:11:17;-7.30;99.90
6210;DHT22;3138;52.550;13.148;2023-03-01T06:13:48;-7.30;99.90
6210;DHT22;3138;52.550;13.148;2023-03-01T06:16:18;-7.20;99.90
6210;DHT22;3138;52.550;13.148;2023-03-01T06:19:01;-7.30;99.90
6210;DHT22;3138;52.550;13.148;2023-03-01T06:21:28;-7.20;99.90
6210;DHT22;3138;52.550;13.148;2023-03-01T06:23:55;-7.10;99.90
6210;DHT22;3138;52.550;13.148;2023-03-01T06:26:22;-7.00;99.90
6210;DHT22;3138;52.550;13.148;2023-03-01T06:28:49;-6.90;99.90
6210;DHT22;3138;52.550;13.148;2023-03-01T06:31:18;-6.70;1.00
6210;DHT22;3138;52.550;13.148;2023-03-01T06:33:53;-6.70;1.00
6210;DHT22;3138;52.550;13.148;2023-03-01T06:36:22;-6.60;1.00
6210;DHT22;3138;52.550;13.148;2023-03-01T06:38:49;-6.60;1.00
6210;DHT22;3138;52.550;13.148;2023-03-01T06:41:16;-6.50;99.90
6210;DHT22;3138;52.550;13.148;2023-03-01T06:43:43;-6.50;99.90
6210;DHT22;3138;52.550;13.148;2023-03-01T06:46:34;-6.40;99.90
6210;DHT22;3138;52.550;13.148;2023-03-01T06:49:11;-6.30;99.90
6210;DHT22;3138;52.550;13.148;2023-03-01T06:51:54;-6.00;1.00
6210;DHT22;3138;52.550;13.148;2023-03-01T06:54:21;-5.90;1.00
6210;DHT22;3138;52.550;13.148;2023-03-01T06:56:50;-5.80;1.00
6210;DHT22;3138;52.550;13.148;2023-03-01T06:59:17;-5.70;1.00
6210;DHT22;3138;52.550;13.148;2023-03-01T07:01:44;-5.70;1.00
6210;DHT22;3138;52.550;13.148;2023-03-01T07:04:13;-5.50;1.00
6210;DHT22;3138;52.550;13.148;2023-03-01T07:06:40;-5.30;1.00
6210;DHT22;3138;52.550;13.148;2023-03-01T07:09:08;-5.10;1.00
6210;DHT22;3138;52.550;13.148;2023-03-01T07:11:35;-4.70;1.00
6210;DHT22;3138;52.550;13.148;2023-03-01T07:14:02;-4.40;1.00
6210;DHT22;3138;52.550;13.148;2023-03-01T07:16:33;-4.20;1.00
6210;DHT22;3138;52.550;13.148;2023-03-01T07:19:14;-4.10;1.00
6210;DHT22;3138;52.550;13.148;2023-03-01T07:21:41;-3.90;1.00
6210;DHT22;3138;52.550;13.148;2023-03-01T07:24:09;-3.90;1.00
6210;DHT22;3138;52.550;13.148;2023-03-01T07:26:37;-3.60;1.00
6210;DHT22;3138;52.550;13.148;2023-03-01T07:29:06;-3.40;99.90
6210;DHT22;3138;52.550;13.148;2023-03-01T07:31:33;-3.20;99.90
6210;DHT22;3138;52.550;13.148;2023-03-01T07:34:00;-2.90;99.90
6210;DHT22;3138;52.550;13.148;2023-03-01T07:36:27;-2.70;99.90
6210;DHT22;3138;52.550;13.148;2023-03-01T07:38:54;-2.60;99.90
6210;DHT22;3138;52.550;13.148;2023-03-01T07:41:22;-2.40;99.90
6210;DHT22;3138;52.550;13.148;2023-03-01T07:43:49;-2.30;99.90
6210;DHT22;3138;52.550;13.148;2023-03-01T07:46:16;-2.20;99.90
6210;DHT22;3138;52.550;13.148;2023-03-01T07:48:44;-1.90;96.30
6210;DHT22;3138;52.550;13.148;2023-03-01T07:51:11;-1.80;85.50
6210;DHT22;3138;52.550;13.148;2023-03-01T07:53:38;-1.60;19.20
6210;DHT22;3138;52.550;13.148;2023-03-01T07:56:07;-1.50;1.00
6210;DHT22;3138;52.550;13.148;2023-03-01T07:58:37;-1.30;12.40
6210;DHT22;3138;52.550;13.148;2023-03-01T08:01:05;-1.10;1.00
6210;DHT22;3138;52.550;13.148;2023-03-01T08:03:32;-1.00;1.00
6210;DHT22;3138;52.550;13.148;2023-03-01T08:05:59;-0.90;1.00
6210;DHT22;3138;52.550;13.148;2023-03-01T08:08:27;-0.60;1.00
6210;DHT22;3138;52.550;13.148;2023-03-01T08:10:56;-0.50;1.00
6210;DHT22;3138;52.550;13.148;2023-03-01T08:13:23;-0.30;1.00
6210;DHT22;3138;52.550;13.148;2023-03-01T08:15:52;-0.20;1.00
6210;DHT22;3138;52.550;13.148;2023-03-01T08:18:19;0.00;99.90
6210;DHT22;3138;52.550;13.148;2023-03-01T08:20:47;0.20;99.90
6210;DHT22;3138;52.550;13.148;2023-03-01T08:23:14;0.40;99.90
6210;DHT22;3138;52.550;13.148;2023-03-01T08:25:41;0.50;99.90
6210;DHT22;3138;52.550;13.148;2023-03-01T08:28:08;0.60;99.90
6210;DHT22;3138;52.550;13.148;2023-03-01T08:30:35;0.60;93.90
6210;DHT22;3138;52.550;13.148;2023-03-01T08:33:03;0.80;70.40
6210;DHT22;3138;52.550;13.148;2023-03-01T08:35:30;1.00;31.60
6210;DHT22;3138;52.550;13.148;2023-03-01T08:37:57;1.10;1.00
6210;DHT22;3138;52.550;13.148;2023-03-01T08:40:24;1.30;1.00
6210;DHT22;3138;52.550;13.148;2023-03-01T08:42:50;1.50;1.00
6210;DHT22;3138;52.550;13.148;2023-03-01T08:45:17;1.80;1.00
6210;DHT22;3138;52.550;13.148;2023-03-01T08:47:44;1.80;1.00
6210;DHT22;3138;52.550;13.148;2023-03-01T08:50:13;2.00;1.00
6210;DHT22;3138;52.550;13.148;2023-03-01T08:52:39;2.00;1.00
6210;DHT22;3138;52.550;13.148;2023-03-01T08:55:07;2.20;1.00
6210;DHT22;3138;52.550;13.148;2023-03-01T08:57:34;2.40;1.00
6210;DHT22;3138;52.550;13.148;2023-03-01T09:00:01;2.50;1.00
6210;DHT22;3138;52.550;13.148;2023-03-01T09:02:28;2.60;1.00
6210;DHT22;3138;52.550;13.148;2023-03-01T09:04:55;2.70;1.00
6210;DHT22;3138;52.550;13.148;2023-03-01T09:07:24;2.70;1.00
6210;DHT22;3138;52.550;13.148;2023-03-01T09:09:53;2.90;1.00
6210;DHT22;3138;52.550;13.148;2023-03-01T09:12:21;3.10;1.00
6210;DHT22;3138;52.550;13.148;2023-03-01T09:14:48;3.10;99.90
6210;DHT22;3138;52.550;13.148;2023-03-01T09:17:15;3.10;99.90
6210;DHT22;3138;52.550;13.148;2023-03-01T09:19:41;3.20;99.90
6210;DHT22;3138;52.550;13.148;2023-03-01T09:22:08;3.30;99.90
6210;DHT22;3138;52.550;13.148;2023-03-01T09:24:37;3.50;99.90
6210;DHT22;3138;52.550;13.148;2023-03-01T09:27:05;3.60;99.90
6210;DHT22;3138;52.550;13.148;2023-03-01T09:29:34;3.60;99.90
6210;DHT22;3138;52.550;13.148;2023-03-01T09:32:01;3.60;99.90
6210;DHT22;3138;52.550;13.148;2023-03-01T09:34:28;4.00;99.90
6210;DHT22;3138;52.550;13.148;2023-03-01T09:36:57;4.00;99.90
6210;DHT22;3138;52.550;13.148;2023-03-01T09:39:25;4.10;99.90
6210;DHT22;3138;52.550;13.148;2023-03-01T09:41:58;4.20;99.90
6210;DHT22;3138;52.550;13.148;2023-03-01T09:44:32;4.20;99.90
6210;DHT22;3138;52.550;13.148;2023-03-01T09:47:01;4.30;99.90
6210;DHT22;3138;52.550;13.148;2023-03-01T09:49:33;4.40;99.90
6210;DHT22;3138;52.550;13.148;2023-03-01T09:52:07;4.30;99.90
6210;DHT22;3138;52.550;13.148;2023-03-01T09:54:39;4.50;99.90
6210;DHT22;3138;52.550;13.148;2023-03-01T09:57:15;4.80;99.90
6210;DHT22;3138;52.550;13.148;2023-03-01T09:59:54;4.60;99.90
6210;DHT22;3138;52.550;13.148;2023-03-01T10:02:27;4.90;96.10
6210;DHT22;3138;52.550;13.148;2023-03-01T10:05:09;5.10;76.70
6210;DHT22;3138;52.550;13.148;2023-03-01T10:07:42;5.10;67.40
6210;DHT22;3138;52.550;13.148;2023-03-01T10:10:20;5.10;31.70
6210;DHT22;3138;52.550;13.148;2023-03-01T10:12:50;5.20;16.60
6210;DHT22;3138;52.550;13.148;2023-03-01T10:15:20;5.20;13.40
6210;DHT22;3138;52.550;13.148;2023-03-01T10:17:52;5.30;1.00
6210;DHT22;3138;52.550;13.148;2023-03-01T10:20:26;5.30;1.00
6210;DHT22;3138;52.550;13.148;2023-03-01T10:23:01;5.50;1.00
6210;DHT22;3138;52.550;13.148;2023-03-01T10:25:44;5.40;1.00
6210;DHT22;3138;52.550;13.148;2023-03-01T10:28:17;5.30;1.00
6210;DHT22;3138;52.550;13.148;2023-03-01T10:30:45;5.40;1.00
6210;DHT22;3138;52.550;13.148;2023-03-01T10:33:16;5.40;1.00
6210;DHT22;3138;52.550;13.148;2023-03-01T10:35:44;5.50;1.00
6210;DHT22;3138;52.550;13.148;2023-03-01T10:38:12;5.70;1.00
6210;DHT22;3138;52.550;13.148;2023-03-01T10:40:51;5.70;1.00
6210;DHT22;3138;52.550;13.148;2023-03-01T10:43:20;5.80;1.00
6210;DHT22;3138;52.550;13.148;2023-03-01T10:45:48;5.90;1.00
6210;DHT22;3138;52.550;13.148;2023-03-01T10:48:17;6.10;1.00
6210;DHT22;3138;52.550;13.148;2023-03-01T10:50:46;5.90;1.00
6210;DHT22;3138;52.550;13.148;2023-03-01T10:53:24;5.70;1.00
6210;DHT22;3138;52.550;13.148;2023-03-01T10:56:01;5.80;1.00
6210;DHT22;3138;52.550;13.148;2023-03-01T10:58:31;5.80;1.00
6210;DHT22;3138;52.550;13.148;2023-03-01T11:00:59;5.90;1.00
6210;DHT22;3138;52.550;13.148;2023-03-01T11:03:28;6.00;1.00
6210;DHT22;3138;52.550;13.148;2023-03-01T11:06:02;6.00;1.00
6210;DHT22;3138;52.550;13.148;2023-03-01T11:08:33;6.00;1.00
6210;DHT22;3138;52.550;13.148;2023-03-01T11:11:05;6.20;1.00
6210;DHT22;3138;52.550;13.148;2023-03-01T11:13:34;6.40;1.00
6210;DHT22;3138;52.550;13.148;2023-03-01T11:16:02;6.50;1.00
6210;DHT22;3138;52.550;13.148;2023-03-01T11:18:31;6.40;1.00
6210;DHT22;3138;52.550;13.148;2023-03-01T11:20:59;6.30;1.00
6210;DHT22;3138;52.550;13.148;2023-03-01T11:23:28;6.40;1.00
6210;DHT22;3138;52.550;13.148;2023-03-01T11:25:59;6.50;1.00
6210;DHT22;3138;52.550;13.148;2023-03-01T11:28:28;6.50;1.00
6210;DHT22;3138;52.550;13.148;2023-03-01T11:31:02;6.40;1.00
6210;DHT22;3138;52.550;13.148;2023-03-01T11:33:37;6.60;1.00
6210;DHT22;3138;52.550;13.148;2023-03-01T11:36:08;6.50;1.00
6210;DHT22;3138;52.550;13.148;2023-03-01T11:38:39;6.50;1.00
6210;DHT22;3138;52.550;13.148;2023-03-01T11:41:12;6.60;1.00
6210;DHT22;3138;52.550;13.148;2023-03-01T11:43:47;6.70;1.00
6210;DHT22;3138;52.550;13.148;2023-03-01T11:46:40;6.90;1.00
6210;DHT22;3138;52.550;13.148;2023-03-01T11:52:03;6.90;1.00
6210;DHT22;3138;52.550;13.148;2023-03-01T11:54:44;6.80;1.00
6210;DHT22;3138;52.550;13.148;2023-03-01T11:57:17;7.20;1.00
6210;DHT22;3138;52.550;13.148;2023-03-01T12:00:07;7.10;1.00
6210;DHT22;3138;52.550;13.148;2023-03-01T12:03:19;7.00;1.00
6210;DHT22;3138;52.550;13.148;2023-03-01T12:06:09;7.30;1.00
6210;DHT22;3138;52.550;13.148;2023-03-01T12:08:41;7.10;1.00
6210;DHT22;3138;52.550;13.148;2023-03-01T12:11:20;7.30;1.00
6210;DHT22;3138;52.550;13.148;2023-03-01T12:17:06;7.30;1.00
6210;DHT22;3138;52.550;13.148;2023-03-01T12:19:51;7.20;1.00
6210;DHT22;3138;52.550;13.148;2023-03-01T12:22:29;7.30;1.00
6210;DHT22;3138;52.550;13.148;2023-03-01T12:25:08;7.20;1.00
6210;DHT22;3138;52.550;13.148;2023-03-01T12:30:45;7.30;1.00
6210;DHT22;3138;52.550;13.148;2023-03-01T12:33:29;7.30;1.00
6210;DHT22;3138;52.550;13.148;2023-03-01T12:36:24;7.40;1.00
6210;DHT22;3138;52.550;13.148;2023-03-01T12:39:03;7.40;1.00
6210;DHT22;3138;52.550;13.148;2023-03-01T12:41:43;7.60;1.00
6210;DHT22;3138;52.550;13.148;2023-03-01T12:44:29;7.40;1.00
6210;DHT22;3138;52.550;13.148;2023-03-01T12:47:07;7.40;1.00
6210;DHT22;3138;52.550;13.148;2023-03-01T12:49:40;7.40;1.00
6210;DHT22;3138;52.550;13.148;2023-03-01T12:52:13;7.20;1.00
6210;DHT22;3138;52.550;13.148;2023-03-01T12:54:41;7.30;1.00
6210;DHT22;3138;52.550;13.148;2023-03-01T12:57:14;7.60;1.00
6210;DHT22;3138;52.550;13.148;2023-03-01T12:59:48;7.70;1.00
6210;DHT22;3138;52.550;13.148;2023-03-01T13:02:23;7.70;1.00
6210;DHT22;3138;52.550;13.148;2023-03-01T13:05:06;7.70;1.00
6210;DHT22;3138;52.550;13.148;2023-03-01T13:07:43;7.80;1.00
6210;DHT22;3138;52.550;13.148;2023-03-01T13:10:20;7.70;1.00
6210;DHT22;3138;52.550;13.148;2023-03-01T13:13:01;7.70;1.00
6210;DHT22;3138;52.550;13.148;2023-03-01T13:15:31;7.50;1.00
6210;DHT22;3138;52.550;13.148;2023-03-01T13:18:00;7.60;1.00
6210;DHT22;3138;52.550;13.148;2023-03-01T13:20:32;7.70;1.00
6210;DHT22;3138;52.550;13.148;2023-03-01T13:23:07;7.90;1.00
6210;DHT22;3138;52.550;13.148;2023-03-01T13:26:03;7.90;1.00
6210;DHT22;3138;52.550;13.148;2023-03-01T13:28:56;7.80;1.00
6210;DHT22;3138;52.550;13.148;2023-03-01T13:31:58;7.90;1.00
6210;DHT22;3138;52.550;13.148;2023-03-01T13:34:53;7.60;1.00
6210;DHT22;3138;52.550;13.148;2023-03-01T13:37:26;7.50;1.00
6210;DHT22;3138;52.550;13.148;2023-03-01T13:39:59;7.50;1.00
6210;DHT22;3138;52.550;13.148;2023-03-01T13:42:34;7.30;1.00
6210;DHT22;3138;52.550;13.148;2023-03-01T13:45:04;7.30;1.00
6210;DHT22;3138;52.550;13.148;2023-03-01T13:47:34;7.30;1.00
6210;DHT22;3138;52.550;13.148;2023-03-01T13:50:03;7.30;1.00
6210;DHT22;3138;52.550;13.148;2023-03-01T13:52:36;7.50;1.00
6210;DHT22;3138;52.550;13.148;2023-03-01T13:55:16;7.50;1.00
6210;DHT22;3138;52.550;13.148;2023-03-01T13:57:47;7.70;1.00
6210;DHT22;3138;52.550;13.148;2023-03-01T14:00:27;7.80;1.00
6210;DHT22;3138;52.550;13.148;2023-03-01T14:03:11;7.70;1.00
6210;DHT22;3138;52.550;13.148;2023-03-01T14:05:40;7.70;1.00
6210;DHT22;3138;52.550;13.148;2023-03-01T14:08:19;7.70;1.00
6210;DHT22;3138;52.550;13.148;2023-03-01T14:10:56;7.80;1.00
6210;DHT22;3138;52.550;13.148;2023-03-01T14:13:36;7.60;1.00
6210;DHT22;3138;52.550;13.148;2023-03-01T14:16:19;7.60;1.00
6210;DHT22;3138;52.550;13.148;2023-03-01T14:18:58;7.50;1.00
6210;DHT22;3138;52.550;13.148;2023-03-01T14:21:29;7.60;1.00
6210;DHT22;3138;52.550;13.148;2023-03-01T14:23:57;7.60;1.00
6210;DHT22;3138;52.550;13.148;2023-03-01T14:26:24;7.60;1.00
6210;DHT22;3138;52.550;13.148;2023-03-01T14:28:53;7.60;1.00
6210;DHT22;3138;52.550;13.148;2023-03-01T14:31:33;7.50;1.00
6210;DHT22;3138;52.550;13.148;2023-03-01T14:34:01;7.40;1.00
6210;DHT22;3138;52.550;13.148;2023-03-01T14:36:31;7.40;1.00
6210;DHT22;3138;52.550;13.148;2023-03-01T14:38:59;7.50;1.00
6210;DHT22;3138;52.550;13.148;2023-03-01T14:41:33;7.50;1.00
6210;DHT22;3138;52.550;13.148;2023-03-01T14:44:06;7.30;1.00
6210;DHT22;3138;52.550;13.148;2023-03-01T14:46:39;7.20;1.00
6210;DHT22;3138;52.550;13.148;2023-03-01T14:49:10;7.20;1.00
6210;DHT22;3138;52.550;13.148;2023-03-01T14:51:41;7.20;1.00
6210;DHT22;3138;52.550;13.148;2023-03-01T14:54:20;7.40;1.00
6210;DHT22;3138;52.550;13.148;2023-03-01T14:56:47;7.50;1.00
6210;DHT22;3138;52.550;13.148;2023-03-01T14:59:19;7.60;1.00
6210;DHT22;3138;52.550;13.148;2023-03-01T15:01:48;7.60;1.00
6210;DHT22;3138;52.550;13.148;2023-03-01T15:04:15;7.50;1.00
6210;DHT22;3138;52.550;13.148;2023-03-01T15:06:43;7.30;1.00
6210;DHT22;3138;52.550;13.148;2023-03-01T15:09:14;7.30;1.00
6210;DHT22;3138;52.550;13.148;2023-03-01T15:11:43;7.30;1.00
6210;DHT22;3138;52.550;13.148;2023-03-01T15:14:28;7.20;1.00
6210;DHT22;3138;52.550;13.148;2023-03-01T15:16:55;7.40;1.00
6210;DHT22;3138;52.550;13.148;2023-03-01T15:19:25;7.40;1.00
6210;DHT22;3138;52.550;13.148;2023-03-01T15:21:52;7.30;1.00
6210;DHT22;3138;52.550;13.148;2023-03-01T15:24:23;7.20;1.00
6210;DHT22;3138;52.550;13.148;2023-03-01T15:26:52;7.20;1.00
6210;DHT22;3138;52.550;13.148;2023-03-01T15:29:22;7.20;1.00
6210;DHT22;3138;52.550;13.148;2023-03-01T15:31:58;7.30;1.00
6210;DHT22;3138;52.550;13.148;2023-03-01T15:34:27;7.30;1.00
6210;DHT22;3138;52.550;13.148;2023-03-01T15:36:55;7.30;1.00
6210;DHT22;3138;52.550;13.148;2023-03-01T15:39:31;7.30;1.00
6210;DHT22;3138;52.550;13.148;2023-03-01T15:42:03;7.20;1.00
6210;DHT22;3138;52.550;13.148;2023-03-01T15:44:32;7.00;1.00
6210;DHT22;3138;52.550;13.148;2023-03-01T15:47:00;6.90;1.00
6210;DHT22;3138;52.550;13.148;2023-03-01T15:49:37;7.00;1.00
6210;DHT22;3138;52.550;13.148;2023-03-01T15:52:09;7.00;1.00
6210;DHT22;3138;52.550;13.148;2023-03-01T15:54:40;6.90;1.00
6210;DHT22;3138;52.550;13.148;2023-03-01T15:57:10;6.80;1.00
6210;DHT22;3138;52.550;13.148;2023-03-01T15:59:41;6.80;1.00
6210;DHT22;3138;52.550;13.148;2023-03-01T16:02:11;6.60;1.00
6210;DHT22;3138;52.550;13.148;2023-03-01T16:04:39;6.70;1.00
6210;DHT22;3138;52.550;13.148;2023-03-01T16:07:09;6.70;1.00
6210;DHT22;3138;52.550;13.148;2023-03-01T16:09:36;6.70;1.00
6210;DHT22;3138;52.550;13.148;2023-03-01T16:12:03;6.80;1.00
6210;DHT22;3138;52.550;13.148;2023-03-01T16:14:31;6.70;1.00
6210;DHT22;3138;52.550;13.148;2023-03-01T16:16:57;6.60;1.00
6210;DHT22;3138;52.550;13.148;2023-03-01T16:19:26;6.50;1.00
6210;DHT22;3138;52.550;13.148;2023-03-01T16:21:53;6.30;1.00
6210;DHT22;3138;52.550;13.148;2023-03-01T16:24:20;6.10;1.00
6210;DHT22;3138;52.550;13.148;2023-03-01T16:26:47;5.80;1.00
6210;DHT22;3138;52.550;13.148;2023-03-01T16:29:14;5.60;1.00
6210;DHT22;3138;52.550;13.148;2023-03-01T16:31:41;5.60;1.00
6210;DHT22;3138;52.550;13.148;2023-03-01T16:34:08;5.30;1.00
6210;DHT22;3138;52.550;13.148;2023-03-01T16:36:37;5.10;1.00
6210;DHT22;3138;52.550;13.148;2023-03-01T16:39:04;5.10;1.00
6210;DHT22;3138;52.550;13.148;2023-03-01T16:41:31;4.90;1.00